Time,TemperatureF,DewpointF,PressureIn,WindDirection,WindDirectionDegrees,WindSpeedMPH,WindSpeedGustMPH,Humidity,HourlyPrecipIn,Conditions,Clouds,dailyrainin,SoftwareType,DateUTC
2013-12-03 00:01:00,41.1,36.0,29.89,NNW,338,0.0,0.0,82,0.00,,,0.00,VWS V13.00,2013-12-03 05:01:00,
2013-12-03 00:02:00,41.1,36.0,29.90,NE,45,1.7,1.7,82,0.00,,,0.00,VWS V13.00,2013-12-03 05:02:00,
2013-12-03 00:07:00,41.1,36.0,29.89,West,270,0.0,1.7,82,0.00,,,0.00,VWS V13.00,2013-12-03 05:07:00,
2013-12-03 00:12:00,41.3,36.2,29.89,NNE,22,0.0,1.7,82,0.00,,,0.00,VWS V13.00,2013-12-03 05:12:00,
2013-12-03 00:17:00,41.3,36.5,29.89,WSW,248,0.0,1.7,83,0.00,,,0.00,VWS V13.00,2013-12-03 05:17:00,
2013-12-03 00:22:00,41.3,36.5,29.89,ENE,68,0.0,0.0,83,0.00,,,0.00,VWS V13.00,2013-12-03 05:22:00,
2013-12-03 00:27:00,41.3,36.5,29.89,WSW,248,0.0,4.2,83,0.00,,,0.00,VWS V13.00,2013-12-03 05:27:00,
2013-12-03 00:32:00,41.3,36.5,29.89,NW,315,0.0,4.2,83,0.00,,,0.00,VWS V13.00,2013-12-03 05:32:00,
2013-12-03 00:37:00,41.3,36.5,29.89,North,0,0.0,4.2,83,0.00,,,0.00,VWS V13.00,2013-12-03 05:37:00,
2013-12-03 00:42:00,41.3,36.5,29.89,WNW,292,0.0,0.0,83,0.00,,,0.00,VWS V13.00,2013-12-03 05:42:00,
2013-12-03 00:47:00,41.3,36.5,29.90,NNW,338,0.0,0.0,83,0.00,,,0.00,VWS V13.00,2013-12-03 05:47:00,
2013-12-03 00:53:00,41.3,36.5,29.90,West,270,0.0,0.0,83,0.00,,,0.00,VWS V13.00,2013-12-03 05:53:00,
2013-12-03 00:58:00,41.3,36.5,29.90,NNW,338,0.0,0.0,83,0.00,,,0.00,VWS V13.00,2013-12-03 05:58:00,
2013-12-03 01:03:00,41.5,37.0,29.90,West,270,0.0,0.0,84,0.00,,,0.00,VWS V13.00,2013-12-03 06:03:00,
2013-12-03 01:08:00,41.5,37.0,29.90,SE,135,0.0,0.0,84,0.00,,,0.00,VWS V13.00,2013-12-03 06:08:00,
2013-12-03 01:13:00,41.5,37.0,29.90,ENE,68,0.0,0.0,84,0.00,,,0.00,VWS V13.00,2013-12-03 06:13:00,
2013-12-03 01:18:00,41.5,37.0,29.90,ENE,68,0.0,0.0,84,0.00,,,0.00,VWS V13.00,2013-12-03 06:18:00,
2013-12-03 01:23:00,41.5,37.0,29.90,NNW,338,0.0,0.0,84,0.00,,,0.00,VWS V13.00,2013-12-03 06:23:00,
2013-12-03 01:28:00,41.5,37.0,29.90,West,270,0.0,0.0,84,0.00,,,0.00,VWS V13.00,2013-12-03 06:28:00,
2013-12-03 01:33:00,41.5,37.0,29.90,NW,315,0.0,0.0,84,0.00,,,0.00,VWS V13.00,2013-12-03 06:33:00,
2013-12-03 01:38:00,41.5,37.0,29.90,SW,225,0.0,0.0,84,0.00,,,0.00,VWS V13.00,2013-12-03 06:38:00,
2013-12-03 01:43:00,41.3,37.1,29.90,NW,315,0.0,0.0,85,0.00,,,0.00,VWS V13.00,2013-12-03 06:43:00,
2013-12-03 01:48:00,41.3,37.1,29.90,NNE,22,0.0,0.0,85,0.00,,,0.00,VWS V13.00,2013-12-03 06:48:00,
2013-12-03 01:53:00,41.3,37.1,29.90,SSW,202,0.0,0.0,85,0.00,,,0.00,VWS V13.00,2013-12-03 06:53:00,
2013-12-03 01:58:00,41.3,37.1,29.89,NE,45,1.7,1.7,85,0.00,,,0.00,VWS V13.00,2013-12-03 06:58:00,
2013-12-03 02:03:00,41.3,37.1,29.89,North,0,0.0,0.0,85,0.00,,,0.00,VWS V13.00,2013-12-03 07:03:00,
2013-12-03 02:08:00,41.3,37.1,29.90,SE,135,0.0,0.0,85,0.00,,,0.00,VWS V13.00,2013-12-03 07:08:00,
2013-12-03 02:13:00,41.1,36.9,29.89,NNW,338,0.0,0.0,85,0.00,,,0.00,VWS V13.00,2013-12-03 07:13:00,
2013-12-03 02:18:00,40.8,36.7,29.90,North,0,0.0,0.0,85,0.00,,,0.00,VWS V13.00,2013-12-03 07:18:00,
2013-12-03 02:23:00,40.8,36.3,29.90,North,0,0.0,0.0,84,0.00,,,0.00,VWS V13.00,2013-12-03 07:23:00,
2013-12-03 02:28:00,40.6,36.2,29.90,North,0,0.0,2.2,84,0.00,,,0.00,VWS V13.00,2013-12-03 07:28:00,
2013-12-03 02:33:00,40.6,36.2,29.90,West,270,0.0,2.2,84,0.00,,,0.00,VWS V13.00,2013-12-03 07:33:00,
2013-12-03 02:38:00,40.2,35.8,29.90,NE,45,2.0,2.2,84,0.00,,,0.00,VWS V13.00,2013-12-03 07:38:00,
2013-12-03 02:43:00,40.2,35.8,29.91,SE,135,0.0,0.0,84,0.00,,,0.00,VWS V13.00,2013-12-03 07:43:00,
2013-12-03 02:48:00,40.2,35.8,29.91,West,270,0.0,0.0,84,0.00,,,0.00,VWS V13.00,2013-12-03 07:48:00,
2013-12-03 02:53:00,40.2,35.8,29.91,NNW,338,0.0,0.0,84,0.00,,,0.00,VWS V13.00,2013-12-03 07:53:00,
2013-12-03 02:58:00,40.2,35.8,29.91,NW,315,0.0,0.0,84,0.00,,,0.00,VWS V13.00,2013-12-03 07:58:00,
2013-12-03 03:04:00,40.2,35.8,29.91,West,270,0.0,0.0,84,0.00,,,0.00,VWS V13.00,2013-12-03 08:04:00,
2013-12-03 03:09:00,40.2,35.8,29.91,NNW,338,0.0,0.0,84,0.00,,,0.00,VWS V13.00,2013-12-03 08:09:00,
2013-12-03 03:14:00,40.2,35.8,29.91,SW,225,0.0,0.0,84,0.00,,,0.00,VWS V13.00,2013-12-03 08:14:00,
2013-12-03 03:19:00,40.2,35.8,29.91,West,270,0.0,1.5,84,0.00,,,0.00,VWS V13.00,2013-12-03 08:19:00,
2013-12-03 03:24:00,40.2,36.1,29.91,SSW,202,0.0,0.0,85,0.00,,,0.00,VWS V13.00,2013-12-03 08:24:00,
2013-12-03 03:29:00,40.2,36.1,29.91,South,180,0.0,1.5,85,0.00,,,0.00,VWS V13.00,2013-12-03 08:29:00,
2013-12-03 03:34:00,40.2,36.1,29.91,NW,315,2.2,2.2,85,0.00,,,0.00,VWS V13.00,2013-12-03 08:34:00,
2013-12-03 03:39:00,40.2,36.1,29.90,NW,315,0.0,2.2,85,0.00,,,0.00,VWS V13.00,2013-12-03 08:39:00,
2013-12-03 03:44:00,40.2,36.1,29.90,North,0,5.1,5.1,85,0.00,,,0.00,VWS V13.00,2013-12-03 08:44:00,
2013-12-03 03:49:00,40.4,36.5,29.90,South,180,0.0,5.1,86,0.00,,,0.00,VWS V13.00,2013-12-03 08:49:00,
2013-12-03 03:54:00,40.6,36.8,29.91,WNW,292,2.0,5.1,86,0.00,,,0.00,VWS V13.00,2013-12-03 08:54:00,
2013-12-03 03:59:00,40.6,36.8,29.90,WNW,292,0.0,5.1,86,0.00,,,0.00,VWS V13.00,2013-12-03 08:59:00,
2013-12-03 04:04:00,40.8,36.9,29.90,North,0,0.0,0.0,86,0.00,,,0.00,VWS V13.00,2013-12-03 09:04:00,
2013-12-03 04:09:00,40.8,36.9,29.90,WNW,292,1.5,1.5,86,0.00,,,0.00,VWS V13.00,2013-12-03 09:09:00,
2013-12-03 04:14:00,40.8,36.9,29.91,NW,315,0.0,1.7,86,0.00,,,0.00,VWS V13.00,2013-12-03 09:14:00,
2013-12-03 04:19:00,40.8,37.2,29.90,SSE,158,0.0,5.5,87,0.00,,,0.00,VWS V13.00,2013-12-03 09:19:00,
2013-12-03 04:24:00,40.8,37.2,29.90,SE,135,1.3,1.3,87,0.00,,,0.00,VWS V13.00,2013-12-03 09:24:00,
2013-12-03 04:29:00,40.8,37.2,29.90,WNW,292,0.0,2.0,87,0.00,,,0.00,VWS V13.00,2013-12-03 09:29:00,
2013-12-03 04:34:00,40.8,37.2,29.91,NE,45,0.0,4.0,87,0.00,,,0.00,VWS V13.00,2013-12-03 09:34:00,
2013-12-03 04:39:00,41.0,37.4,29.91,NW,315,1.5,4.0,87,0.00,,,0.00,VWS V13.00,2013-12-03 09:39:00,
2013-12-03 04:44:00,41.1,37.5,29.91,NNW,338,1.7,1.7,87,0.00,,,0.00,VWS V13.00,2013-12-03 09:44:00,
2013-12-03 04:49:00,41.5,38.2,29.91,NW,315,2.4,5.3,88,0.00,,,0.00,VWS V13.00,2013-12-03 09:49:00,
2013-12-03 04:54:00,41.5,38.2,29.91,North,0,0.0,5.3,88,0.00,,,0.00,VWS V13.00,2013-12-03 09:54:00,
2013-12-03 04:59:00,41.7,38.4,29.90,WNW,292,2.0,5.3,88,0.00,,,0.00,VWS V13.00,2013-12-03 09:59:00,
2013-12-03 05:04:00,41.9,38.6,29.90,North,0,5.1,5.1,88,0.00,,,0.00,VWS V13.00,2013-12-03 10:04:00,
2013-12-03 05:09:00,41.9,38.6,29.90,NNW,338,3.8,5.1,88,0.00,,,0.00,VWS V13.00,2013-12-03 10:09:00,
2013-12-03 05:14:00,41.9,38.6,29.90,NNW,338,1.5,5.1,88,0.00,,,0.00,VWS V13.00,2013-12-03 10:14:00,
2013-12-03 05:19:00,42.0,38.7,29.91,NW,315,0.0,5.1,88,0.00,,,0.00,VWS V13.00,2013-12-03 10:19:00,
2013-12-03 05:25:00,42.0,38.7,29.91,NW,315,0.0,5.3,88,0.00,,,0.00,VWS V13.00,2013-12-03 10:25:00,
2013-12-03 05:30:00,42.0,39.0,29.91,West,270,2.2,5.3,89,0.00,,,0.00,VWS V13.00,2013-12-03 10:30:00,
2013-12-03 05:35:00,42.0,39.0,29.91,WNW,292,0.0,5.3,89,0.00,,,0.00,VWS V13.00,2013-12-03 10:35:00,
2013-12-03 05:40:00,42.0,39.0,29.91,North,0,0.0,5.3,89,0.00,,,0.00,VWS V13.00,2013-12-03 10:40:00,
2013-12-03 05:45:00,42.0,39.0,29.91,NNW,338,0.0,0.0,89,0.00,,,0.00,VWS V13.00,2013-12-03 10:45:00,
2013-12-03 05:50:00,42.2,39.2,29.91,NNW,338,1.5,1.5,89,0.00,,,0.00,VWS V13.00,2013-12-03 10:50:00,
2013-12-03 05:55:00,42.2,39.2,29.91,SSE,158,0.0,1.5,89,0.00,,,0.00,VWS V13.00,2013-12-03 10:55:00,
2013-12-03 06:00:00,42.0,39.0,29.91,WNW,292,0.0,2.0,89,0.00,,,0.00,VWS V13.00,2013-12-03 11:00:00,
2013-12-03 06:05:00,42.2,39.2,29.91,WNW,292,0.0,0.0,89,0.00,,,0.00,VWS V13.00,2013-12-03 11:05:00,
2013-12-03 06:10:00,42.4,39.4,29.92,WNW,292,0.0,2.2,89,0.00,,,0.00,VWS V13.00,2013-12-03 11:10:00,
2013-12-03 06:15:00,42.4,39.4,29.92,NNW,338,0.0,2.2,89,0.00,,,0.00,VWS V13.00,2013-12-03 11:15:00,
2013-12-03 06:20:00,42.4,39.4,29.92,WNW,292,2.6,2.6,89,0.00,,,0.00,VWS V13.00,2013-12-03 11:20:00,
2013-12-03 06:25:00,42.4,39.4,29.92,NNW,338,0.0,2.9,89,0.00,,,0.00,VWS V13.00,2013-12-03 11:25:00,
2013-12-03 06:30:00,42.6,39.6,29.93,North,0,2.0,2.9,89,0.00,,,0.00,VWS V13.00,2013-12-03 11:30:00,
2013-12-03 06:35:00,42.6,39.6,29.93,NNW,338,2.4,3.5,89,0.00,,,0.00,VWS V13.00,2013-12-03 11:35:00,
2013-12-03 06:40:00,42.6,39.6,29.93,North,0,2.2,3.5,89,0.00,,,0.00,VWS V13.00,2013-12-03 11:40:00,
2013-12-03 06:45:00,42.8,39.8,29.93,NNE,22,2.9,2.9,89,0.00,,,0.00,VWS V13.00,2013-12-03 11:45:00,
2013-12-03 06:50:00,42.9,39.9,29.93,North,0,3.1,3.1,89,0.00,,,0.00,VWS V13.00,2013-12-03 11:50:00,
2013-12-03 06:55:00,42.9,39.9,29.93,North,0,1.5,3.8,89,0.00,,,0.00,VWS V13.00,2013-12-03 11:55:00,
2013-12-03 07:00:00,42.9,39.9,29.93,NW,315,2.6,3.8,89,0.00,,,0.00,VWS V13.00,2013-12-03 12:00:00,
2013-12-03 07:05:00,42.9,39.9,29.93,NNE,22,1.3,2.6,89,0.00,,,0.00,VWS V13.00,2013-12-03 12:05:00,
2013-12-03 07:10:00,42.9,39.9,29.93,NNW,338,0.0,2.6,89,0.00,,,0.00,VWS V13.00,2013-12-03 12:10:00,
2013-12-03 07:15:00,42.9,39.9,29.93,NE,45,0.0,2.6,89,0.00,,,0.00,VWS V13.00,2013-12-03 12:15:00,
2013-12-03 07:20:00,42.9,39.9,29.93,North,0,2.2,2.6,89,0.00,,,0.00,VWS V13.00,2013-12-03 12:20:00,
2013-12-03 07:25:00,42.9,39.9,29.93,West,270,1.3,1.3,89,0.00,,,0.00,VWS V13.00,2013-12-03 12:25:00,
2013-12-03 07:30:00,43.1,40.1,29.93,SSE,158,0.0,1.3,89,0.00,,,0.00,VWS V13.00,2013-12-03 12:30:00,
2013-12-03 07:35:00,43.3,40.3,29.93,SSW,202,0.0,1.3,89,0.00,,,0.00,VWS V13.00,2013-12-03 12:35:00,
2013-12-03 07:40:00,43.3,40.3,29.94,NNE,22,0.0,1.3,89,0.00,,,0.00,VWS V13.00,2013-12-03 12:40:00,
2013-12-03 07:45:00,43.5,40.5,29.94,North,0,0.0,0.0,89,0.00,,,0.00,VWS V13.00,2013-12-03 12:45:00,
2013-12-03 07:50:00,43.3,40.3,29.94,NNW,338,2.9,2.9,89,0.00,,,0.00,VWS V13.00,2013-12-03 12:50:00,
2013-12-03 07:55:00,43.5,40.5,29.94,WSW,248,0.0,2.9,89,0.00,,,0.00,VWS V13.00,2013-12-03 12:55:00,
2013-12-03 08:00:00,43.5,40.5,29.94,NNE,22,0.0,2.9,89,0.00,,,0.00,VWS V13.00,2013-12-03 13:00:00,
2013-12-03 08:05:00,43.5,40.5,29.94,NW,315,0.0,0.0,89,0.00,,,0.00,VWS V13.00,2013-12-03 13:05:00,
2013-12-03 08:10:00,43.8,40.8,29.95,NNW,338,4.6,4.6,89,0.00,,,0.00,VWS V13.00,2013-12-03 13:10:00,
2013-12-03 08:15:00,44.2,41.2,29.96,NNW,338,0.0,6.9,89,0.00,,,0.00,VWS V13.00,2013-12-03 13:15:00,
2013-12-03 08:20:00,44.4,41.4,29.96,NW,315,2.4,6.9,89,0.00,,,0.00,VWS V13.00,2013-12-03 13:20:00,
2013-12-03 08:25:00,44.7,41.7,29.96,NW,315,2.2,5.3,89,0.00,,,0.00,VWS V13.00,2013-12-03 13:25:00,
2013-12-03 08:30:00,45.1,42.1,29.96,NW,315,1.3,5.3,89,0.00,,,0.00,VWS V13.00,2013-12-03 13:30:00,
2013-12-03 08:35:00,46.5,43.4,29.96,NW,315,2.2,5.3,89,0.00,,,0.00,VWS V13.00,2013-12-03 13:35:00,
2013-12-03 08:40:00,46.7,43.6,29.96,WNW,292,0.6,5.3,89,0.00,,,0.00,VWS V13.00,2013-12-03 13:40:00,
2013-12-03 08:45:00,48.0,44.9,29.97,NNW,338,3.8,3.8,89,0.00,,,0.00,VWS V13.00,2013-12-03 13:45:00,
2013-12-03 08:50:00,48.2,44.8,29.96,NNW,338,2.0,4.6,88,0.00,,,0.00,VWS V13.00,2013-12-03 13:50:00,
2013-12-03 08:56:00,48.3,44.6,29.96,WNW,292,0.0,4.6,87,0.00,,,0.00,VWS V13.00,2013-12-03 13:56:00,
2013-12-03 09:01:00,48.7,45.0,29.96,NNW,338,2.4,2.4,87,0.00,,,0.00,VWS V13.00,2013-12-03 14:01:00,
2013-12-03 09:06:00,48.7,44.7,29.96,NNW,338,3.1,3.1,86,0.00,,,0.00,VWS V13.00,2013-12-03 14:06:00,
2013-12-03 09:11:00,48.5,44.2,29.96,NW,315,0.0,3.1,85,0.00,,,0.00,VWS V13.00,2013-12-03 14:11:00,
2013-12-03 09:16:00,48.3,44.0,29.97,NNE,22,2.4,3.1,85,0.00,,,0.00,VWS V13.00,2013-12-03 14:16:00,
2013-12-03 09:21:00,48.3,43.7,29.97,NNW,338,2.9,2.9,84,0.00,,,0.00,VWS V13.00,2013-12-03 14:21:00,
2013-12-03 09:26:00,48.3,43.7,29.98,NW,315,0.0,2.9,84,0.00,,,0.00,VWS V13.00,2013-12-03 14:26:00,
2013-12-03 09:31:00,48.3,43.7,29.97,NW,315,2.4,2.9,84,0.00,,,0.00,VWS V13.00,2013-12-03 14:31:00,
2013-12-03 09:36:00,48.3,43.1,29.97,NNW,338,2.2,4.0,82,0.00,,,0.00,VWS V13.00,2013-12-03 14:36:00,
2013-12-03 09:41:00,49.1,44.2,29.98,NNW,338,2.0,2.0,83,0.00,,,0.00,VWS V13.00,2013-12-03 14:41:00,
2013-12-03 09:46:00,51.4,46.7,29.98,NNW,338,1.5,2.0,84,0.00,,,0.00,VWS V13.00,2013-12-03 14:46:00,
2013-12-03 09:51:00,53.2,47.2,29.97,NW,315,0.0,2.0,80,0.00,,,0.00,VWS V13.00,2013-12-03 14:51:00,
2013-12-03 09:56:00,53.2,46.5,29.97,NNW,338,0.0,2.0,78,0.00,,,0.00,VWS V13.00,2013-12-03 14:56:00,
2013-12-03 10:01:00,52.3,45.3,29.97,NW,315,1.3,1.3,77,0.00,,,0.00,VWS V13.00,2013-12-03 15:01:00,
2013-12-03 10:06:00,51.6,44.3,29.97,NW,315,0.0,1.3,76,0.00,,,0.00,VWS V13.00,2013-12-03 15:06:00,
2013-12-03 10:11:00,51.4,44.1,29.97,NW,315,0.0,1.3,76,0.00,,,0.00,VWS V13.00,2013-12-03 15:11:00,
2013-12-03 10:16:00,51.0,43.7,29.97,NNW,338,4.6,4.6,76,0.00,,,0.00,VWS V13.00,2013-12-03 15:16:00,
2013-12-03 10:21:00,50.7,43.4,29.97,NE,45,0.0,0.0,76,0.00,,,0.00,VWS V13.00,2013-12-03 15:21:00,
2013-12-03 10:26:00,50.5,43.2,29.97,West,270,0.0,0.0,76,0.00,,,0.00,VWS V13.00,2013-12-03 15:26:00,
2013-12-03 10:31:00,50.3,43.0,29.97,North,0,0.0,0.0,76,0.00,,,0.00,VWS V13.00,2013-12-03 15:31:00,
2013-12-03 10:36:00,50.1,42.8,29.97,WNW,292,0.0,0.8,76,0.00,,,0.00,VWS V13.00,2013-12-03 15:36:00,
2013-12-03 10:41:00,50.1,43.2,29.97,NNW,338,0.0,0.0,77,0.00,,,0.00,VWS V13.00,2013-12-03 15:41:00,
2013-12-03 10:46:00,50.1,43.2,29.97,North,0,0.0,2.9,77,0.00,,,0.00,VWS V13.00,2013-12-03 15:46:00,
2013-12-03 10:51:00,50.5,43.6,29.97,NW,315,1.3,2.9,77,0.00,,,0.00,VWS V13.00,2013-12-03 15:51:00,
2013-12-03 10:56:00,50.7,43.8,29.97,NNW,338,1.3,2.9,77,0.00,,,0.00,VWS V13.00,2013-12-03 15:56:00,
2013-12-03 11:01:00,50.7,43.8,29.97,North,0,0.0,0.0,77,0.00,,,0.00,VWS V13.00,2013-12-03 16:01:00,
2013-12-03 11:06:00,51.0,43.7,29.96,NNW,338,0.0,0.0,76,0.00,,,0.00,VWS V13.00,2013-12-03 16:06:00,
2013-12-03 11:11:00,51.2,43.6,29.96,North,0,2.0,2.0,75,0.00,,,0.00,VWS V13.00,2013-12-03 16:11:00,
2013-12-03 11:16:00,51.6,44.0,29.96,North,0,2.2,2.6,75,0.00,,,0.00,VWS V13.00,2013-12-03 16:16:00,
2013-12-03 11:21:00,56.1,48.7,29.96,ENE,68,0.0,0.0,76,0.00,,,0.00,VWS V13.00,2013-12-03 16:21:00,
2013-12-03 11:26:00,60.0,51.0,29.96,NNW,338,2.2,2.2,72,0.00,,,0.00,VWS V13.00,2013-12-03 16:26:00,
2013-12-03 11:31:00,63.6,51.6,29.96,SSW,202,0.0,2.2,65,0.00,,,0.00,VWS V13.00,2013-12-03 16:31:00,
2013-12-03 11:36:00,67.6,51.8,29.95,ENE,68,0.0,2.2,57,0.00,,,0.00,VWS V13.00,2013-12-03 16:36:00,
2013-12-03 11:41:00,69.4,51.5,29.95,NE,45,0.0,0.0,53,0.00,,,0.00,VWS V13.00,2013-12-03 16:41:00,
2013-12-03 11:46:00,70.8,50.7,29.94,NNW,338,0.0,0.0,49,0.00,,,0.00,VWS V13.00,2013-12-03 16:46:00,
2013-12-03 11:51:00,71.7,50.4,29.94,North,0,0.0,0.8,47,0.00,,,0.00,VWS V13.00,2013-12-03 16:51:00,
2013-12-03 11:56:00,72.1,50.2,29.94,ESE,112,0.0,0.8,46,0.00,,,0.00,VWS V13.00,2013-12-03 16:56:00,
2013-12-03 12:02:00,72.6,49.5,29.94,NE,45,4.2,4.2,44,0.00,,,0.00,VWS V13.00,2013-12-03 17:02:00,
2013-12-03 12:07:00,72.5,48.8,29.94,WNW,292,0.0,4.2,43,0.00,,,0.00,VWS V13.00,2013-12-03 17:07:00,
2013-12-03 12:12:00,72.3,48.6,29.94,SSE,158,0.0,4.2,43,0.00,,,0.00,VWS V13.00,2013-12-03 17:12:00,
2013-12-03 12:17:00,71.4,47.8,29.94,SSE,158,0.0,4.2,43,0.00,,,0.00,VWS V13.00,2013-12-03 17:17:00,
2013-12-03 12:22:00,70.8,48.4,29.94,ENE,68,0.0,0.0,45,0.00,,,0.00,VWS V13.00,2013-12-03 17:22:00,
2013-12-03 12:27:00,71.4,49.0,29.93,NNW,338,1.1,1.1,45,0.00,,,0.00,VWS V13.00,2013-12-03 17:27:00,
2013-12-03 12:32:00,71.2,48.2,29.93,South,180,0.0,1.5,44,0.00,,,0.00,VWS V13.00,2013-12-03 17:32:00,
2013-12-03 12:37:00,69.8,47.5,29.93,ESE,112,2.4,2.4,45,0.00,,,0.00,VWS V13.00,2013-12-03 17:37:00,
2013-12-03 12:42:00,68.9,47.3,29.93,ESE,112,3.1,3.1,46,0.00,,,0.00,VWS V13.00,2013-12-03 17:42:00,
2013-12-03 12:47:00,67.8,46.9,29.93,SSW,202,0.0,3.1,47,0.00,,,0.00,VWS V13.00,2013-12-03 17:47:00,
2013-12-03 12:52:00,67.8,46.9,29.92,ESE,112,0.0,3.1,47,0.00,,,0.00,VWS V13.00,2013-12-03 17:52:00,
2013-12-03 12:57:00,68.3,47.3,29.92,WNW,292,0.0,3.1,47,0.00,,,0.00,VWS V13.00,2013-12-03 17:57:00,
2013-12-03 13:02:00,68.7,47.1,29.92,East,90,1.5,1.5,46,0.00,,,0.00,VWS V13.00,2013-12-03 18:02:00,
2013-12-03 13:07:00,67.8,46.3,29.93,SE,135,0.8,2.0,46,0.00,,,0.00,VWS V13.00,2013-12-03 18:07:00,
2013-12-03 13:12:00,66.7,45.8,29.92,ESE,112,4.9,4.9,47,0.00,,,0.00,VWS V13.00,2013-12-03 18:12:00,
2013-12-03 13:17:00,64.5,44.4,29.91,ESE,112,3.5,4.9,48,0.00,,,0.00,VWS V13.00,2013-12-03 18:17:00,
2013-12-03 13:22:00,63.6,44.1,29.91,ESE,112,3.8,3.8,49,0.00,,,0.00,VWS V13.00,2013-12-03 18:22:00,
2013-12-03 13:27:00,62.9,43.5,29.92,SSE,158,1.5,3.8,49,0.00,,,0.00,VWS V13.00,2013-12-03 18:27:00,
2013-12-03 13:32:00,62.4,44.0,29.92,ESE,112,3.8,3.8,51,0.00,,,0.00,VWS V13.00,2013-12-03 18:32:00,
2013-12-03 13:37:00,62.0,43.7,29.92,ESE,112,0.8,3.8,51,0.00,,,0.00,VWS V13.00,2013-12-03 18:37:00,
2013-12-03 13:42:00,61.1,43.9,29.92,ESE,112,0.0,2.0,53,0.00,,,0.00,VWS V13.00,2013-12-03 18:42:00,
2013-12-03 13:47:00,60.4,44.2,29.92,SSE,158,1.7,2.2,55,0.00,,,0.00,VWS V13.00,2013-12-03 18:47:00,
2013-12-03 13:52:00,59.5,43.8,29.93,SE,135,4.4,4.4,56,0.00,,,0.00,VWS V13.00,2013-12-03 18:52:00,
2013-12-03 13:58:00,58.8,43.2,29.92,East,90,2.2,4.4,56,0.00,,,0.00,VWS V13.00,2013-12-03 18:58:00,
2013-12-03 14:03:00,58.6,43.0,29.92,SE,135,2.2,2.2,56,0.00,,,0.00,VWS V13.00,2013-12-03 19:03:00,
2013-12-03 14:08:00,57.9,42.3,29.92,East,90,0.0,2.6,56,0.00,,,0.00,VWS V13.00,2013-12-03 19:08:00,
2013-12-03 14:13:00,57.9,42.3,29.92,SE,135,1.5,2.6,56,0.00,,,0.00,VWS V13.00,2013-12-03 19:13:00,
2013-12-03 14:18:00,57.7,42.6,29.92,SSE,158,1.7,2.6,57,0.00,,,0.00,VWS V13.00,2013-12-03 19:18:00,
2013-12-03 14:23:00,57.0,42.8,29.92,SSW,202,3.3,3.3,59,0.00,,,0.00,VWS V13.00,2013-12-03 19:23:00,
2013-12-03 14:28:00,56.4,43.1,29.93,SSE,158,2.0,3.3,61,0.00,,,0.00,VWS V13.00,2013-12-03 19:28:00,
2013-12-03 14:33:00,56.3,43.5,29.93,SSE,158,4.0,4.0,62,0.00,,,0.00,VWS V13.00,2013-12-03 19:33:00,
2013-12-03 14:38:00,55.5,43.1,29.93,SE,135,5.5,5.8,63,0.00,,,0.00,VWS V13.00,2013-12-03 19:38:00,
2013-12-03 14:43:00,54.6,42.7,29.93,SSE,158,3.3,5.1,64,0.00,,,0.00,VWS V13.00,2013-12-03 19:43:00,
2013-12-03 14:48:00,54.1,42.6,29.93,SE,135,2.9,5.1,65,0.00,,,0.00,VWS V13.00,2013-12-03 19:48:00,
2013-12-03 14:53:00,53.7,43.0,29.94,South,180,4.6,5.1,67,0.00,,,0.00,VWS V13.00,2013-12-03 19:53:00,
2013-12-03 14:58:00,53.4,42.7,29.93,SSW,202,2.4,5.1,67,0.00,,,0.00,VWS V13.00,2013-12-03 19:58:00,
2013-12-03 15:03:00,53.4,43.1,29.94,South,180,2.6,2.6,68,0.00,,,0.00,VWS V13.00,2013-12-03 20:03:00,
2013-12-03 15:08:00,53.2,43.3,29.94,SE,135,2.4,3.8,69,0.00,,,0.00,VWS V13.00,2013-12-03 20:08:00,
2013-12-03 15:13:00,52.7,43.2,29.94,ESE,112,0.6,3.8,70,0.00,,,0.00,VWS V13.00,2013-12-03 20:13:00,
2013-12-03 15:18:00,52.8,43.3,29.94,SSW,202,2.0,4.0,70,0.00,,,0.00,VWS V13.00,2013-12-03 20:18:00,
2013-12-03 15:23:00,52.3,42.8,29.95,SSE,158,2.4,4.4,70,0.00,,,0.00,VWS V13.00,2013-12-03 20:23:00,
2013-12-03 15:28:00,51.9,42.8,29.95,ESE,112,2.9,4.4,71,0.00,,,0.00,VWS V13.00,2013-12-03 20:28:00,
2013-12-03 15:33:00,51.6,42.9,29.95,SE,135,2.9,4.4,72,0.00,,,0.00,VWS V13.00,2013-12-03 20:33:00,
2013-12-03 15:38:00,50.9,42.6,29.96,South,180,5.8,5.8,73,0.00,,,0.00,VWS V13.00,2013-12-03 20:38:00,
2013-12-03 15:43:00,50.5,42.2,29.95,SE,135,3.5,4.2,73,0.00,,,0.00,VWS V13.00,2013-12-03 20:43:00,
2013-12-03 15:48:00,50.1,42.2,29.96,East,90,5.5,5.5,74,0.00,,,0.00,VWS V13.00,2013-12-03 20:48:00,
2013-12-03 15:53:00,49.8,42.2,29.96,SE,135,5.8,5.8,75,0.00,,,0.00,VWS V13.00,2013-12-03 20:53:00,
2013-12-03 15:58:00,49.6,42.0,29.96,SE,135,3.1,5.8,75,0.00,,,0.00,VWS V13.00,2013-12-03 20:58:00,
2013-12-03 16:03:00,49.4,42.2,29.96,SE,135,3.1,3.1,76,0.00,,,0.00,VWS V13.00,2013-12-03 21:03:00,
2013-12-03 16:08:00,48.9,42.0,29.96,South,180,6.4,6.4,77,0.00,,,0.00,VWS V13.00,2013-12-03 21:08:00,
2013-12-03 16:13:00,48.7,41.8,29.96,SE,135,3.8,6.4,77,0.00,,,0.00,VWS V13.00,2013-12-03 21:13:00,
2013-12-03 16:18:00,48.7,42.2,29.96,SSE,158,5.5,6.4,78,0.00,,,0.00,VWS V13.00,2013-12-03 21:18:00,
2013-12-03 16:23:00,48.3,42.1,29.96,SSE,158,2.4,2.4,79,0.00,,,0.00,VWS V13.00,2013-12-03 21:23:00,
2013-12-03 16:28:00,48.3,42.1,29.96,SSE,158,2.2,4.6,79,0.00,,,0.00,VWS V13.00,2013-12-03 21:28:00,
2013-12-03 16:34:00,48.0,42.1,29.97,South,180,5.3,5.3,80,0.00,,,0.00,VWS V13.00,2013-12-03 21:34:00,
2013-12-03 16:39:00,48.0,42.5,29.96,SSE,158,6.4,6.4,81,0.00,,,0.00,VWS V13.00,2013-12-03 21:39:00,
2013-12-03 16:44:00,48.0,42.5,29.97,South,180,5.1,5.1,81,0.00,,,0.00,VWS V13.00,2013-12-03 21:44:00,
2013-12-03 16:49:00,47.8,42.6,29.97,SSE,158,4.6,5.1,82,0.00,,,0.00,VWS V13.00,2013-12-03 21:49:00,
2013-12-03 16:54:00,47.8,42.9,29.97,SSE,158,6.0,6.0,83,0.00,,,0.00,VWS V13.00,2013-12-03 21:54:00,
2013-12-03 16:59:00,47.8,42.9,29.98,SE,135,4.2,6.0,83,0.02,,,0.02,VWS V13.00,2013-12-03 21:59:00,
2013-12-03 17:04:00,47.8,42.6,29.97,SE,135,1.5,3.8,82,0.02,,,0.02,VWS V13.00,2013-12-03 22:04:00,
2013-12-03 17:09:00,47.8,42.3,29.97,SSE,158,3.1,3.8,81,0.02,,,0.02,VWS V13.00,2013-12-03 22:09:00,
2013-12-03 17:14:00,47.8,42.3,29.98,SSE,158,3.5,6.4,81,0.02,,,0.02,VWS V13.00,2013-12-03 22:14:00,
2013-12-03 17:19:00,48.0,41.8,29.98,South,180,2.4,6.4,79,0.02,,,0.02,VWS V13.00,2013-12-03 22:19:00,
2013-12-03 17:24:00,48.0,41.5,29.99,South,180,3.1,3.5,78,0.02,,,0.02,VWS V13.00,2013-12-03 22:24:00,
2013-12-03 17:29:00,48.2,41.3,29.99,South,180,2.9,3.5,77,0.02,,,0.02,VWS V13.00,2013-12-03 22:29:00,
2013-12-03 17:34:00,48.5,41.6,29.99,SSE,158,2.0,4.0,77,0.02,,,0.02,VWS V13.00,2013-12-03 22:34:00,
2013-12-03 17:39:00,48.7,41.5,29.99,South,180,2.2,4.0,76,0.02,,,0.02,VWS V13.00,2013-12-03 22:39:00,
2013-12-03 17:44:00,48.7,41.1,29.99,SSE,158,1.1,1.7,75,0.02,,,0.02,VWS V13.00,2013-12-03 22:44:00,
2013-12-03 17:49:00,48.7,41.1,29.99,South,180,2.4,2.4,75,0.02,,,0.02,VWS V13.00,2013-12-03 22:49:00,
2013-12-03 17:54:00,48.7,40.8,29.99,South,180,1.5,2.4,74,0.02,,,0.02,VWS V13.00,2013-12-03 22:54:00,
2013-12-03 17:59:00,48.7,40.5,29.99,SSE,158,2.4,6.2,73,0.00,,,0.02,VWS V13.00,2013-12-03 22:59:00,
2013-12-03 18:04:00,48.7,40.1,29.99,South,180,3.3,4.2,72,0.00,,,0.02,VWS V13.00,2013-12-03 23:04:00,
2013-12-03 18:09:00,48.9,40.3,29.99,SSE,158,4.0,4.2,72,0.00,,,0.02,VWS V13.00,2013-12-03 23:09:00,
2013-12-03 18:14:00,49.1,39.8,29.99,SSE,158,0.0,4.2,70,0.00,,,0.02,VWS V13.00,2013-12-03 23:14:00,
2013-12-03 18:19:00,49.1,39.8,30.00,NW,315,0.0,4.2,70,0.00,,,0.02,VWS V13.00,2013-12-03 23:19:00,
2013-12-03 18:24:00,49.1,39.8,30.00,SSW,202,2.9,2.9,70,0.00,,,0.02,VWS V13.00,2013-12-03 23:24:00,
2013-12-03 18:29:00,48.9,39.6,30.00,SW,225,0.0,2.9,70,0.00,,,0.02,VWS V13.00,2013-12-03 23:29:00,
2013-12-03 18:34:00,48.9,39.2,30.01,South,180,0.0,2.9,69,0.00,,,0.02,VWS V13.00,2013-12-03 23:34:00,
2013-12-03 18:39:00,48.9,39.2,30.01,South,180,1.7,2.9,69,0.00,,,0.02,VWS V13.00,2013-12-03 23:39:00,
2013-12-03 18:44:00,48.9,38.8,30.01,South,180,0.0,0.0,68,0.00,,,0.02,VWS V13.00,2013-12-03 23:44:00,
2013-12-03 18:49:00,48.9,38.8,30.01,SSW,202,0.0,0.0,68,0.00,,,0.02,VWS V13.00,2013-12-03 23:49:00,
2013-12-03 18:54:00,48.9,38.8,30.01,SSE,158,0.0,0.8,68,0.00,,,0.02,VWS V13.00,2013-12-03 23:54:00,
2013-12-03 18:59:00,48.9,38.4,30.02,SW,225,0.0,0.8,67,0.00,,,0.02,VWS V13.00,2013-12-03 23:59:00,
2013-12-03 19:04:00,48.9,38.4,30.01,SE,135,0.0,0.0,67,0.00,,,0.02,VWS V13.00,2013-12-04 00:04:00,
2013-12-03 19:09:00,48.9,38.4,30.00,SW,225,0.0,0.0,67,0.00,,,0.02,VWS V13.00,2013-12-04 00:09:00,
2013-12-03 19:14:00,48.9,38.1,30.00,West,270,0.0,0.0,66,0.00,,,0.02,VWS V13.00,2013-12-04 00:14:00,
2013-12-03 19:19:00,48.9,38.1,30.01,South,180,0.0,0.0,66,0.00,,,0.02,VWS V13.00,2013-12-04 00:19:00,
2013-12-03 19:25:00,48.9,38.1,30.00,SE,135,0.0,0.0,66,0.00,,,0.02,VWS V13.00,2013-12-04 00:25:00,
2013-12-03 19:30:00,48.9,38.1,30.00,SSE,158,0.0,0.0,66,0.00,,,0.02,VWS V13.00,2013-12-04 00:30:00,
2013-12-03 19:35:00,48.7,37.9,30.00,WNW,292,0.0,0.0,66,0.00,,,0.02,VWS V13.00,2013-12-04 00:35:00,
2013-12-03 19:40:00,48.5,38.1,30.00,WSW,248,0.0,0.0,67,0.00,,,0.02,VWS V13.00,2013-12-04 00:40:00,
2013-12-03 19:45:00,48.3,37.9,30.00,SSW,202,0.0,0.0,67,0.00,,,0.02,VWS V13.00,2013-12-04 00:45:00,
2013-12-03 19:50:00,48.2,37.8,30.00,SW,225,0.0,0.0,67,0.00,,,0.02,VWS V13.00,2013-12-04 00:50:00,
2013-12-03 19:55:00,48.0,37.6,30.00,NW,315,0.0,0.0,67,0.00,,,0.02,VWS V13.00,2013-12-04 00:55:00,
2013-12-03 20:00:00,48.0,37.6,30.00,East,90,0.0,0.0,67,0.00,,,0.02,VWS V13.00,2013-12-04 01:00:00,
2013-12-03 20:05:00,47.8,37.4,30.00,SSE,158,0.0,0.0,67,0.00,,,0.02,VWS V13.00,2013-12-04 01:05:00,
2013-12-03 20:10:00,47.8,37.4,30.00,West,270,0.0,0.0,67,0.00,,,0.02,VWS V13.00,2013-12-04 01:10:00,
2013-12-03 20:15:00,47.4,37.0,30.00,West,270,0.0,0.0,67,0.00,,,0.02,VWS V13.00,2013-12-04 01:15:00,
2013-12-03 20:20:00,47.4,37.4,30.00,WSW,248,0.0,0.0,68,0.00,,,0.02,VWS V13.00,2013-12-04 01:20:00,
2013-12-03 20:25:00,47.3,37.3,30.00,SW,225,0.0,0.0,68,0.00,,,0.02,VWS V13.00,2013-12-04 01:25:00,
2013-12-03 20:30:00,47.3,37.3,30.00,SE,135,2.9,2.9,68,0.00,,,0.02,VWS V13.00,2013-12-04 01:30:00,
2013-12-03 20:35:00,47.3,37.3,30.00,SE,135,1.7,2.9,68,0.00,,,0.02,VWS V13.00,2013-12-04 01:35:00,
2013-12-03 20:40:00,47.3,37.3,30.00,SE,135,0.0,2.9,68,0.00,,,0.02,VWS V13.00,2013-12-04 01:40:00,
2013-12-03 20:45:00,47.1,37.1,30.00,SSE,158,3.1,3.1,68,0.00,,,0.02,VWS V13.00,2013-12-04 01:45:00,
2013-12-03 20:50:00,47.1,37.5,30.00,South,180,0.0,3.1,69,0.00,,,0.02,VWS V13.00,2013-12-04 01:50:00,
2013-12-03 20:55:00,46.9,37.3,30.00,SE,135,1.5,4.0,69,0.00,,,0.02,VWS V13.00,2013-12-04 01:55:00,
2013-12-03 21:00:00,46.9,36.9,30.01,SSE,158,0.0,4.0,68,0.00,,,0.02,VWS V13.00,2013-12-04 02:00:00,
2013-12-03 21:05:00,46.9,36.5,30.01,South,180,3.3,3.3,67,0.00,,,0.02,VWS V13.00,2013-12-04 02:05:00,
2013-12-03 21:10:00,47.1,37.1,30.01,South,180,2.4,6.4,68,0.00,,,0.02,VWS V13.00,2013-12-04 02:10:00,
2013-12-03 21:15:00,47.1,37.5,30.01,SSE,158,0.0,6.4,69,0.00,,,0.02,VWS V13.00,2013-12-04 02:15:00,
2013-12-03 21:20:00,47.3,37.7,30.01,South,180,0.0,6.4,69,0.00,,,0.02,VWS V13.00,2013-12-04 02:20:00,
2013-12-03 21:25:00,47.1,37.8,30.01,SSE,158,2.0,2.0,70,0.00,,,0.02,VWS V13.00,2013-12-04 02:25:00,
2013-12-03 21:30:00,47.1,37.8,30.01,SSE,158,3.5,3.5,70,0.00,,,0.02,VWS V13.00,2013-12-04 02:30:00,
2013-12-03 21:36:00,47.3,38.4,30.02,SSE,158,4.4,4.4,71,0.00,,,0.02,VWS V13.00,2013-12-04 02:36:00,
2013-12-03 21:41:00,47.3,38.4,30.02,South,180,4.4,4.4,71,0.00,,,0.02,VWS V13.00,2013-12-04 02:41:00,
2013-12-03 21:46:00,47.4,38.5,30.02,South,180,6.9,6.9,71,0.00,,,0.02,VWS V13.00,2013-12-04 02:46:00,
2013-12-03 21:51:00,47.6,38.7,30.02,SSE,158,9.6,10.2,71,0.00,,,0.02,VWS V13.00,2013-12-04 02:51:00,
2013-12-03 21:56:00,47.8,38.9,30.02,South,180,10.7,10.7,71,0.00,,,0.02,VWS V13.00,2013-12-04 02:56:00,
2013-12-03 22:01:00,47.8,38.1,30.03,South,180,7.3,7.3,69,0.00,,,0.02,VWS V13.00,2013-12-04 03:01:00,
2013-12-03 22:06:00,48.0,38.0,30.03,SE,135,6.9,7.3,68,0.00,,,0.02,VWS V13.00,2013-12-04 03:06:00,
2013-12-03 22:11:00,48.0,37.6,30.03,SSW,202,8.9,8.9,67,0.00,,,0.02,VWS V13.00,2013-12-04 03:11:00,
2013-12-03 22:16:00,48.2,37.8,30.03,South,180,6.7,8.9,67,0.00,,,0.02,VWS V13.00,2013-12-04 03:16:00,
2013-12-03 22:21:00,48.3,37.5,30.03,SSE,158,6.2,6.2,66,0.00,,,0.02,VWS V13.00,2013-12-04 03:21:00,
2013-12-03 22:26:00,48.7,37.5,30.03,SE,135,7.6,7.6,65,0.00,,,0.02,VWS V13.00,2013-12-04 03:26:00,
2013-12-03 22:31:00,48.7,37.5,30.03,SSE,158,4.6,7.6,65,0.00,,,0.02,VWS V13.00,2013-12-04 03:31:00,
2013-12-03 22:36:00,48.7,37.1,30.03,South,180,5.5,7.6,64,0.00,,,0.02,VWS V13.00,2013-12-04 03:36:00,
2013-12-03 22:41:00,48.7,37.1,30.04,SSE,158,5.8,5.8,64,0.00,,,0.02,VWS V13.00,2013-12-04 03:41:00,
2013-12-03 22:46:00,48.7,36.7,30.04,South,180,7.6,7.6,63,0.00,,,0.02,VWS V13.00,2013-12-04 03:46:00,
2013-12-03 22:51:00,48.9,35.6,30.04,South,180,9.1,10.0,60,0.00,,,0.02,VWS V13.00,2013-12-04 03:51:00,
2013-12-03 22:56:00,48.9,35.2,30.04,South,180,6.2,10.0,59,0.00,,,0.02,VWS V13.00,2013-12-04 03:56:00,
2013-12-03 23:01:00,49.1,35.0,30.04,South,180,4.6,4.6,58,0.00,,,0.02,VWS V13.00,2013-12-04 04:01:00,
2013-12-03 23:06:00,49.2,35.5,30.04,SE,135,6.9,6.9,59,0.00,,,0.02,VWS V13.00,2013-12-04 04:06:00,
2013-12-03 23:11:00,49.2,37.2,30.04,SE,135,10.2,11.4,63,0.00,,,0.02,VWS V13.00,2013-12-04 04:11:00,
2013-12-03 23:16:00,49.2,38.0,30.04,SSE,158,9.1,11.4,65,0.00,,,0.02,VWS V13.00,2013-12-04 04:16:00,
2013-12-03 23:21:00,49.2,38.7,30.04,SSE,158,8.0,8.0,67,0.00,,,0.02,VWS V13.00,2013-12-04 04:21:00,
2013-12-03 23:26:00,49.2,40.2,30.04,South,180,6.4,9.1,71,0.00,,,0.02,VWS V13.00,2013-12-04 04:26:00,
2013-12-03 23:32:00,49.2,40.9,30.04,South,180,9.8,9.8,73,0.00,,,0.02,VWS V13.00,2013-12-04 04:32:00,
2013-12-03 23:37:00,49.1,41.2,30.04,SSW,202,8.2,9.8,74,0.00,,,0.02,VWS V13.00,2013-12-04 04:37:00,
2013-12-03 23:42:00,48.9,41.3,30.04,South,180,10.5,10.5,75,0.00,,,0.02,VWS V13.00,2013-12-04 04:42:00,
2013-12-03 23:47:00,48.7,41.8,30.04,SE,135,6.9,10.5,77,0.00,,,0.02,VWS V13.00,2013-12-04 04:47:00,
2013-12-03 23:52:00,48.7,41.8,30.04,South,180,8.2,10.5,77,0.00,,,0.02,VWS V13.00,2013-12-04 04:52:00,
2013-12-03 23:57:00,48.3,42.1,30.04,SSE,158,6.0,10.5,79,0.00,,,0.02,VWS V13.00,2013-12-04 04:57:00,